sensor_id;sensor_type;location;lat;lon;timestamp;temperature;humidity
19970;DHT22;10146;47.754;9.566;2023-05-29T00:00:28;14.80;81.20
19970;DHT22;10146;47.754;9.566;2023-05-29T00:02:54;14.90;79.60
19970;DHT22;10146;47.754;9.566;2023-05-29T00:05:20;14.90;82.00
19970;DHT22;10146;47.754;9.566;2023-05-29T00:07:46;14.80;81.60
19970;DHT22;10146;47.754;9.566;2023-05-29T00:10:12;14.80;82.10
19970;DHT22;10146;47.754;9.566;2023-05-29T00:12:38;14.70;85.00
19970;DHT22;10146;47.754;9.566;2023-05-29T00:15:05;14.60;86.50
19970;DHT22;10146;47.754;9.566;2023-05-29T00:17:31;14.50;89.20
19970;DHT22;10146;47.754;9.566;2023-05-29T00:20:00;14.40;89.80
19970;DHT22;10146;47.754;9.566;2023-05-29T00:22:27;14.40;90.80
19970;DHT22;10146;47.754;9.566;2023-05-29T00:24:53;14.30;90.90
19970;DHT22;10146;47.754;9.566;2023-05-29T00:27:18;14.20;94.50
19970;DHT22;10146;47.754;9.566;2023-05-29T00:29:45;14.20;94.60
19970;DHT22;10146;47.754;9.566;2023-05-29T00:32:11;14.30;94.10
19970;DHT22;10146;47.754;9.566;2023-05-29T00:34:36;14.30;97.40
19970;DHT22;10146;47.754;9.566;2023-05-29T00:37:02;14.20;98.70
19970;DHT22;10146;47.754;9.566;2023-05-29T00:39:28;14.10;99.90
19970;DHT22;10146;47.754;9.566;2023-05-29T00:41:53;14.10;99.90
19970;DHT22;10146;47.754;9.566;2023-05-29T00:44:20;14.00;99.90
19970;DHT22;10146;47.754;9.566;2023-05-29T00:46:47;14.00;99.90
19970;DHT22;10146;47.754;9.566;2023-05-29T00:49:13;13.90;99.90
19970;DHT22;10146;47.754;9.566;2023-05-29T00:51:40;13.80;99.90
19970;DHT22;10146;47.754;9.566;2023-05-29T00:54:07;13.80;99.90
19970;DHT22;10146;47.754;9.566;2023-05-29T00:56:34;13.60;99.90
19970;DHT22;10146;47.754;9.566;2023-05-29T00:59:00;13.50;99.90
19970;DHT22;10146;47.754;9.566;2023-05-29T01:01:26;13.50;99.90
19970;DHT22;10146;47.754;9.566;2023-05-29T01:03:55;13.50;99.90
19970;DHT22;10146;47.754;9.566;2023-05-29T01:06:21;13.40;99.90
19970;DHT22;10146;47.754;9.566;2023-05-29T01:08:46;13.40;99.90
19970;DHT22;10146;47.754;9.566;2023-05-29T01:14:05;13.30;99.90
19970;DHT22;10146;47.754;9.566;2023-05-29T01:16:42;13.20;99.90
19970;DHT22;10146;47.754;9.566;2023-05-29T01:20:02;13.20;99.90
19970;DHT22;10146;47.754;9.566;2023-05-29T01:22:25;13.20;99.90
19970;DHT22;10146;47.754;9.566;2023-05-29T01:25:11;13.20;99.90
19970;DHT22;10146;47.754;9.566;2023-05-29T01:27:42;13.30;99.90
19970;DHT22;10146;47.754;9.566;2023-05-29T01:30:10;13.20;99.90
19970;DHT22;10146;47.754;9.566;2023-05-29T01:32:37;13.20;99.90
19970;DHT22;10146;47.754;9.566;2023-05-29T01:35:04;13.30;99.90
19970;DHT22;10146;47.754;9.566;2023-05-29T01:37:29;13.30;99.90
19970;DHT22;10146;47.754;9.566;2023-05-29T01:39:55;13.20;99.90
19970;DHT22;10146;47.754;9.566;2023-05-29T01:42:21;13.20;99.90
19970;DHT22;10146;47.754;9.566;2023-05-29T01:44:47;13.20;99.90
19970;DHT22;10146;47.754;9.566;2023-05-29T01:47:15;13.20;99.90
19970;DHT22;10146;47.754;9.566;2023-05-29T01:49:41;13.20;99.90
19970;DHT22;10146;47.754;9.566;2023-05-29T01:52:10;13.20;99.90
19970;DHT22;10146;47.754;9.566;2023-05-29T01:54:36;13.20;99.90
19970;DHT22;10146;47.754;9.566;2023-05-29T01:57:02;13.30;99.90
19970;DHT22;10146;47.754;9.566;2023-05-29T01:59:28;13.10;99.90
19970;DHT22;10146;47.754;9.566;2023-05-29T02:01:54;13.00;99.90
19970;DHT22;10146;47.754;9.566;2023-05-29T02:04:19;13.00;99.90
19970;DHT22;10146;47.754;9.566;2023-05-29T02:06:45;13.00;99.90
19970;DHT22;10146;47.754;9.566;2023-05-29T02:09:10;12.90;99.90
19970;DHT22;10146;47.754;9.566;2023-05-29T02:11:36;12.80;99.90
19970;DHT22;10146;47.754;9.566;2023-05-29T02:14:02;12.80;99.90
19970;DHT22;10146;47.754;9.566;2023-05-29T02:16:28;12.70;99.90
19970;DHT22;10146;47.754;9.566;2023-05-29T02:18:54;12.70;99.90
19970;DHT22;10146;47.754;9.566;2023-05-29T02:21:20;12.70;99.90
19970;DHT22;10146;47.754;9.566;2023-05-29T02:23:45;12.80;99.90
19970;DHT22;10146;47.754;9.566;2023-05-29T02:26:12;12.80;99.90
19970;DHT22;10146;47.754;9.566;2023-05-29T02:28:39;12.90;99.90
19970;DHT22;10146;47.754;9.566;2023-05-29T02:31:04;13.00;99.90
19970;DHT22;10146;47.754;9.566;2023-05-29T02:33:30;13.00;99.90
19970;DHT22;10146;47.754;9.566;2023-05-29T02:35:56;13.00;99.90
19970;DHT22;10146;47.754;9.566;2023-05-29T02:38:21;13.00;99.90
19970;DHT22;10146;47.754;9.566;2023-05-29T02:40:48;12.90;99.90
19970;DHT22;10146;47.754;9.566;2023-05-29T02:43:14;12.90;99.90
19970;DHT22;10146;47.754;9.566;2023-05-29T02:45:40;12.90;99.90
19970;DHT22;10146;47.754;9.566;2023-05-29T02:48:05;12.90;99.90
19970;DHT22;10146;47.754;9.566;2023-05-29T02:50:31;12.90;99.90
19970;DHT22;10146;47.754;9.566;2023-05-29T02:52:57;12.90;99.90
19970;DHT22;10146;47.754;9.566;2023-05-29T02:55:23;12.90;99.90
19970;DHT22;10146;47.754;9.566;2023-05-29T02:57:48;12.90;99.90
19970;DHT22;10146;47.754;9.566;2023-05-29T03:00:18;12.90;99.90
19970;DHT22;10146;47.754;9.566;2023-05-29T03:02:43;12.90;99.90
19970;DHT22;10146;47.754;9.566;2023-05-29T03:05:09;13.00;99.90
19970;DHT22;10146;47.754;9.566;2023-05-29T03:07:34;12.80;99.90
19970;DHT22;10146;47.754;9.566;2023-05-29T03:10:00;12.70;99.90
19970;DHT22;10146;47.754;9.566;2023-05-29T03:12:26;12.60;99.90
19970;DHT22;10146;47.754;9.566;2023-05-29T03:14:53;12.60;99.90
19970;DHT22;10146;47.754;9.566;2023-05-29T03:17:19;12.60;99.90
19970;DHT22;10146;47.754;9.566;2023-05-29T03:19:46;12.50;99.90
19970;DHT22;10146;47.754;9.566;2023-05-29T03:22:11;12.50;99.90
19970;DHT22;10146;47.754;9.566;2023-05-29T03:24:37;12.40;99.90
19970;DHT22;10146;47.754;9.566;2023-05-29T03:27:03;12.30;99.90
19970;DHT22;10146;47.754;9.566;2023-05-29T03:29:30;12.20;99.90
19970;DHT22;10146;47.754;9.566;2023-05-29T03:31:56;12.20;99.90
19970;DHT22;10146;47.754;9.566;2023-05-29T03:34:21;12.10;99.90
19970;DHT22;10146;47.754;9.566;2023-05-29T03:36:47;12.00;99.90
19970;DHT22;10146;47.754;9.566;2023-05-29T03:39:12;12.00;99.90
19970;DHT22;10146;47.754;9.566;2023-05-29T03:41:38;11.90;99.90
19970;DHT22;10146;47.754;9.566;2023-05-29T03:44:04;11.90;99.90
19970;DHT22;10146;47.754;9.566;2023-05-29T03:46:31;11.90;99.90
19970;DHT22;10146;47.754;9.566;2023-05-29T03:48:57;11.90;99.90
19970;DHT22;10146;47.754;9.566;2023-05-29T03:51:22;11.80;99.90
19970;DHT22;10146;47.754;9.566;2023-05-29T03:53:48;11.90;99.90
19970;DHT22;10146;47.754;9.566;2023-05-29T03:56:13;11.90;99.90
19970;DHT22;10146;47.754;9.566;2023-05-29T03:58:39;11.90;99.90
19970;DHT22;10146;47.754;9.566;2023-05-29T04:01:05;12.00;99.90
19970;DHT22;10146;47.754;9.566;2023-05-29T04:03:31;12.00;99.90
19970;DHT22;10146;47.754;9.566;2023-05-29T04:05:57;12.10;99.90
19970;DHT22;10146;47.754;9.566;2023-05-29T04:08:23;12.10;99.90
19970;DHT22;10146;47.754;9.566;2023-05-29T04:10:48;12.00;99.90
19970;DHT22;10146;47.754;9.566;2023-05-29T04:13:14;12.00;99.90
19970;DHT22;10146;47.754;9.566;2023-05-29T04:15:40;11.90;99.90
19970;DHT22;10146;47.754;9.566;2023-05-29T04:18:07;12.00;99.90
19970;DHT22;10146;47.754;9.566;2023-05-29T04:20:32;12.10;99.90
19970;DHT22;10146;47.754;9.566;2023-05-29T04:22:58;12.30;99.90
19970;DHT22;10146;47.754;9.566;2023-05-29T04:25:24;12.40;99.90
19970;DHT22;10146;47.754;9.566;2023-05-29T04:27:49;12.40;99.90
19970;DHT22;10146;47.754;9.566;2023-05-29T04:30:16;12.50;99.90
19970;DHT22;10146;47.754;9.566;2023-05-29T04:32:41;12.50;99.90
19970;DHT22;10146;47.754;9.566;2023-05-29T04:35:08;12.50;99.90
19970;DHT22;10146;47.754;9.566;2023-05-29T04:37:35;12.60;99.90
19970;DHT22;10146;47.754;9.566;2023-05-29T04:40:07;12.60;99.90
19970;DHT22;10146;47.754;9.566;2023-05-29T04:42:37;12.60;99.90
19970;DHT22;10146;47.754;9.566;2023-05-29T04:45:04;12.70;99.90
19970;DHT22;10146;47.754;9.566;2023-05-29T04:47:30;12.70;99.90
19970;DHT22;10146;47.754;9.566;2023-05-29T04:50:00;12.80;99.90
19970;DHT22;10146;47.754;9.566;2023-05-29T04:52:26;12.90;99.90
19970;DHT22;10146;47.754;9.566;2023-05-29T04:54:53;13.00;99.90
19970;DHT22;10146;47.754;9.566;2023-05-29T04:57:19;13.00;99.90
19970;DHT22;10146;47.754;9.566;2023-05-29T04:59:44;13.10;99.90
19970;DHT22;10146;47.754;9.566;2023-05-29T05:02:10;13.10;99.90
19970;DHT22;10146;47.754;9.566;2023-05-29T05:04:36;13.10;99.90
19970;DHT22;10146;47.754;9.566;2023-05-29T05:07:02;13.10;99.90
19970;DHT22;10146;47.754;9.566;2023-05-29T05:09:28;13.10;99.90
19970;DHT22;10146;47.754;9.566;2023-05-29T05:11:54;13.30;99.90
19970;DHT22;10146;47.754;9.566;2023-05-29T05:14:21;13.40;99.90
19970;DHT22;10146;47.754;9.566;2023-05-29T05:16:46;13.40;99.90
19970;DHT22;10146;47.754;9.566;2023-05-29T05:19:12;13.50;99.90
19970;DHT22;10146;47.754;9.566;2023-05-29T05:21:37;13.60;99.90
19970;DHT22;10146;47.754;9.566;2023-05-29T05:24:03;13.70;99.90
19970;DHT22;10146;47.754;9.566;2023-05-29T05:26:29;13.70;99.90
19970;DHT22;10146;47.754;9.566;2023-05-29T05:28:55;13.80;99.90
19970;DHT22;10146;47.754;9.566;2023-05-29T05:31:21;13.90;99.90
19970;DHT22;10146;47.754;9.566;2023-05-29T05:33:46;14.00;99.90
19970;DHT22;10146;47.754;9.566;2023-05-29T05:36:12;14.00;99.90
19970;DHT22;10146;47.754;9.566;2023-05-29T05:38:37;14.10;99.90
19970;DHT22;10146;47.754;9.566;2023-05-29T05:41:03;14.20;99.90
19970;DHT22;10146;47.754;9.566;2023-05-29T05:43:28;14.30;99.90
19970;DHT22;10146;47.754;9.566;2023-05-29T05:45:55;14.40;99.90
19970;DHT22;10146;47.754;9.566;2023-05-29T05:48:20;14.50;99.90
19970;DHT22;10146;47.754;9.566;2023-05-29T05:50:46;14.60;99.90
19970;DHT22;10146;47.754;9.566;2023-05-29T05:53:11;14.60;99.90
19970;DHT22;10146;47.754;9.566;2023-05-29T05:55:37;14.60;99.90
19970;DHT22;10146;47.754;9.566;2023-05-29T05:58:03;14.80;99.90
19970;DHT22;10146;47.754;9.566;2023-05-29T06:00:28;14.90;99.90
19970;DHT22;10146;47.754;9.566;2023-05-29T06:02:54;15.00;99.90
19970;DHT22;10146;47.754;9.566;2023-05-29T06:05:20;15.10;99.90
19970;DHT22;10146;47.754;9.566;2023-05-29T06:07:46;15.10;99.90
19970;DHT22;10146;47.754;9.566;2023-05-29T06:10:11;15.30;99.90
19970;DHT22;10146;47.754;9.566;2023-05-29T06:12:37;15.40;99.90
19970;DHT22;10146;47.754;9.566;2023-05-29T06:15:03;15.50;99.90
19970;DHT22;10146;47.754;9.566;2023-05-29T06:17:29;15.50;99.90
19970;DHT22;10146;47.754;9.566;2023-05-29T06:19:55;15.50;99.90
19970;DHT22;10146;47.754;9.566;2023-05-29T06:22:21;15.60;99.90
19970;DHT22;10146;47.754;9.566;2023-05-29T06:24:46;15.70;99.90
19970;DHT22;10146;47.754;9.566;2023-05-29T06:27:12;15.80;99.90
19970;DHT22;10146;47.754;9.566;2023-05-29T06:29:37;15.90;99.90
19970;DHT22;10146;47.754;9.566;2023-05-29T06:32:03;15.90;99.90
19970;DHT22;10146;47.754;9.566;2023-05-29T06:34:29;15.90;99.90
19970;DHT22;10146;47.754;9.566;2023-05-29T06:36:54;16.00;99.90
19970;DHT22;10146;47.754;9.566;2023-05-29T06:39:20;16.00;99.90
19970;DHT22;10146;47.754;9.566;2023-05-29T06:41:46;16.10;99.90
19970;DHT22;10146;47.754;9.566;2023-05-29T06:44:11;16.10;99.90
19970;DHT22;10146;47.754;9.566;2023-05-29T06:46:37;16.10;99.90
19970;DHT22;10146;47.754;9.566;2023-05-29T06:49:03;16.20;99.90
19970;DHT22;10146;47.754;9.566;2023-05-29T06:51:28;16.40;99.90
19970;DHT22;10146;47.754;9.566;2023-05-29T06:53:54;16.50;99.90
19970;DHT22;10146;47.754;9.566;2023-05-29T06:56:20;16.50;99.90
19970;DHT22;10146;47.754;9.566;2023-05-29T06:58:46;16.50;99.90
19970;DHT22;10146;47.754;9.566;2023-05-29T07:01:12;16.50;99.90
19970;DHT22;10146;47.754;9.566;2023-05-29T07:03:37;16.60;99.90
19970;DHT22;10146;47.754;9.566;2023-05-29T07:06:04;16.70;99.90
19970;DHT22;10146;47.754;9.566;2023-05-29T07:08:29;16.90;99.90
19970;DHT22;10146;47.754;9.566;2023-05-29T07:10:55;17.10;99.90
19970;DHT22;10146;47.754;9.566;2023-05-29T07:13:21;17.10;99.90
19970;DHT22;10146;47.754;9.566;2023-05-29T07:15:48;17.20;99.90
19970;DHT22;10146;47.754;9.566;2023-05-29T07:18:14;17.30;99.90
19970;DHT22;10146;47.754;9.566;2023-05-29T07:20:40;17.40;99.90
19970;DHT22;10146;47.754;9.566;2023-05-29T07:23:05;17.50;99.90
19970;DHT22;10146;47.754;9.566;2023-05-29T07:25:31;17.70;99.90
19970;DHT22;10146;47.754;9.566;2023-05-29T07:27:57;17.70;99.90
19970;DHT22;10146;47.754;9.566;2023-05-29T07:30:23;17.80;99.90
19970;DHT22;10146;47.754;9.566;2023-05-29T07:32:49;17.90;99.90
19970;DHT22;10146;47.754;9.566;2023-05-29T07:35:15;17.80;99.90
19970;DHT22;10146;47.754;9.566;2023-05-29T07:37:40;18.00;99.90
19970;DHT22;10146;47.754;9.566;2023-05-29T07:40:06;18.10;99.90
19970;DHT22;10146;47.754;9.566;2023-05-29T07:42:33;18.30;99.90
19970;DHT22;10146;47.754;9.566;2023-05-29T07:44:59;18.30;99.90
19970;DHT22;10146;47.754;9.566;2023-05-29T07:47:25;18.40;99.90
19970;DHT22;10146;47.754;9.566;2023-05-29T07:49:51;18.40;99.90
19970;DHT22;10146;47.754;9.566;2023-05-29T07:52:17;18.50;99.90
19970;DHT22;10146;47.754;9.566;2023-05-29T07:54:43;18.60;99.90
19970;DHT22;10146;47.754;9.566;2023-05-29T07:57:09;18.70;99.90
19970;DHT22;10146;47.754;9.566;2023-05-29T07:59:40;18.80;99.90
19970;DHT22;10146;47.754;9.566;2023-05-29T08:02:07;18.90;99.90
19970;DHT22;10146;47.754;9.566;2023-05-29T08:04:33;19.00;99.90
19970;DHT22;10146;47.754;9.566;2023-05-29T08:07:02;19.20;99.90
19970;DHT22;10146;47.754;9.566;2023-05-29T08:09:29;19.30;99.90
19970;DHT22;10146;47.754;9.566;2023-05-29T08:11:54;19.40;99.90
19970;DHT22;10146;47.754;9.566;2023-05-29T08:14:20;19.60;99.90
19970;DHT22;10146;47.754;9.566;2023-05-29T08:16:46;19.50;99.90
19970;DHT22;10146;47.754;9.566;2023-05-29T08:19:12;19.60;99.90
19970;DHT22;10146;47.754;9.566;2023-05-29T08:21:37;19.70;99.90
19970;DHT22;10146;47.754;9.566;2023-05-29T08:24:03;19.80;99.90
19970;DHT22;10146;47.754;9.566;2023-05-29T08:26:32;19.90;99.90
19970;DHT22;10146;47.754;9.566;2023-05-29T08:28:58;20.00;99.90
19970;DHT22;10146;47.754;9.566;2023-05-29T08:31:23;20.10;99.40
19970;DHT22;10146;47.754;9.566;2023-05-29T08:33:53;20.20;99.00
19970;DHT22;10146;47.754;9.566;2023-05-29T08:36:19;20.30;99.90
19970;DHT22;10146;47.754;9.566;2023-05-29T08:38:48;20.40;99.90
19970;DHT22;10146;47.754;9.566;2023-05-29T08:41:25;20.60;99.00
19970;DHT22;10146;47.754;9.566;2023-05-29T08:43:52;20.80;99.40
19970;DHT22;10146;47.754;9.566;2023-05-29T08:46:18;20.90;97.70
19970;DHT22;10146;47.754;9.566;2023-05-29T08:48:48;21.00;97.70
19970;DHT22;10146;47.754;9.566;2023-05-29T08:51:18;21.00;97.50
19970;DHT22;10146;47.754;9.566;2023-05-29T08:53:45;21.20;97.60
19970;DHT22;10146;47.754;9.566;2023-05-29T08:56:11;21.40;98.00
19970;DHT22;10146;47.754;9.566;2023-05-29T08:58:37;21.50;98.50
19970;DHT22;10146;47.754;9.566;2023-05-29T09:01:03;21.50;96.90
19970;DHT22;10146;47.754;9.566;2023-05-29T09:03:29;21.70;97.60
19970;DHT22;10146;47.754;9.566;2023-05-29T09:05:58;21.90;95.40
19970;DHT22;10146;47.754;9.566;2023-05-29T09:08:28;21.90;95.10
19970;DHT22;10146;47.754;9.566;2023-05-29T09:10:54;21.90;93.70
19970;DHT22;10146;47.754;9.566;2023-05-29T09:13:20;22.00;93.30
19970;DHT22;10146;47.754;9.566;2023-05-29T09:15:46;22.10;87.50
19970;DHT22;10146;47.754;9.566;2023-05-29T09:18:12;22.30;87.60
19970;DHT22;10146;47.754;9.566;2023-05-29T09:20:38;22.40;85.30
19970;DHT22;10146;47.754;9.566;2023-05-29T09:23:05;22.40;80.50
19970;DHT22;10146;47.754;9.566;2023-05-29T09:25:33;22.40;80.40
19970;DHT22;10146;47.754;9.566;2023-05-29T09:28:08;22.40;78.70
19970;DHT22;10146;47.754;9.566;2023-05-29T09:30:45;22.50;77.50
19970;DHT22;10146;47.754;9.566;2023-05-29T09:33:13;22.60;73.80
19970;DHT22;10146;47.754;9.566;2023-05-29T09:35:43;22.60;78.00
19970;DHT22;10146;47.754;9.566;2023-05-29T09:38:14;22.60;74.70
19970;DHT22;10146;47.754;9.566;2023-05-29T09:40:44;22.70;74.90
19970;DHT22;10146;47.754;9.566;2023-05-29T09:43:17;22.80;73.50
19970;DHT22;10146;47.754;9.566;2023-05-29T09:45:44;22.90;73.80
19970;DHT22;10146;47.754;9.566;2023-05-29T09:48:15;23.00;74.10
19970;DHT22;10146;47.754;9.566;2023-05-29T09:50:41;23.10;73.50
19970;DHT22;10146;47.754;9.566;2023-05-29T09:53:20;23.10;71.90
19970;DHT22;10146;47.754;9.566;2023-05-29T09:55:47;23.00;71.80
19970;DHT22;10146;47.754;9.566;2023-05-29T09:58:14;22.90;73.10
19970;DHT22;10146;47.754;9.566;2023-05-29T10:00:41;23.00;72.90
19970;DHT22;10146;47.754;9.566;2023-05-29T10:03:07;23.00;72.60
19970;DHT22;10146;47.754;9.566;2023-05-29T10:05:32;23.00;72.70
19970;DHT22;10146;47.754;9.566;2023-05-29T10:07:59;23.10;70.80
19970;DHT22;10146;47.754;9.566;2023-05-29T10:10:27;23.10;70.00
19970;DHT22;10146;47.754;9.566;2023-05-29T10:12:53;23.20;72.90
19970;DHT22;10146;47.754;9.566;2023-05-29T10:15:20;23.40;71.00
19970;DHT22;10146;47.754;9.566;2023-05-29T10:17:57;23.60;70.00
19970;DHT22;10146;47.754;9.566;2023-05-29T10:20:26;23.70;70.80
19970;DHT22;10146;47.754;9.566;2023-05-29T10:22:54;23.70;70.40
19970;DHT22;10146;47.754;9.566;2023-05-29T10:25:21;23.90;69.60
19970;DHT22;10146;47.754;9.566;2023-05-29T10:27:48;24.00;67.60
19970;DHT22;10146;47.754;9.566;2023-05-29T10:38:15;24.40;67.90
19970;DHT22;10146;47.754;9.566;2023-05-29T10:40:42;24.40;64.30
19970;DHT22;10146;47.754;9.566;2023-05-29T10:43:08;24.40;62.90
19970;DHT22;10146;47.754;9.566;2023-05-29T10:50:47;24.40;64.20
19970;DHT22;10146;47.754;9.566;2023-05-29T10:53:17;24.60;64.40
19970;DHT22;10146;47.754;9.566;2023-05-29T10:55:45;24.90;63.20
19970;DHT22;10146;47.754;9.566;2023-05-29T10:58:24;24.90;60.60
19970;DHT22;10146;47.754;9.566;2023-05-29T11:00:52;24.90;61.20
19970;DHT22;10146;47.754;9.566;2023-05-29T11:03:30;24.80;58.50
19970;DHT22;10146;47.754;9.566;2023-05-29T11:06:03;24.90;60.90
19970;DHT22;10146;47.754;9.566;2023-05-29T11:08:47;24.80;57.60
19970;DHT22;10146;47.754;9.566;2023-05-29T11:11:14;25.00;58.50
19970;DHT22;10146;47.754;9.566;2023-05-29T11:13:40;25.20;62.00
19970;DHT22;10146;47.754;9.566;2023-05-29T11:18:46;25.40;60.10
19970;DHT22;10146;47.754;9.566;2023-05-29T11:21:37;25.40;60.80
19970;DHT22;10146;47.754;9.566;2023-05-29T11:24:04;25.30;59.70
19970;DHT22;10146;47.754;9.566;2023-05-29T11:26:34;25.40;60.30
19970;DHT22;10146;47.754;9.566;2023-05-29T11:29:05;25.40;57.00
19970;DHT22;10146;47.754;9.566;2023-05-29T11:31:33;25.50;59.20
19970;DHT22;10146;47.754;9.566;2023-05-29T11:34:00;25.60;59.40
19970;DHT22;10146;47.754;9.566;2023-05-29T11:36:28;25.60;58.80
19970;DHT22;10146;47.754;9.566;2023-05-29T11:38:54;25.70;58.50
19970;DHT22;10146;47.754;9.566;2023-05-29T11:41:19;25.80;57.20
19970;DHT22;10146;47.754;9.566;2023-05-29T11:43:59;25.80;53.40
19970;DHT22;10146;47.754;9.566;2023-05-29T11:46:25;25.90;53.50
19970;DHT22;10146;47.754;9.566;2023-05-29T11:48:52;25.80;54.30
19970;DHT22;10146;47.754;9.566;2023-05-29T11:51:17;26.00;54.70
19970;DHT22;10146;47.754;9.566;2023-05-29T11:53:45;25.90;55.60
19970;DHT22;10146;47.754;9.566;2023-05-29T11:56:11;25.80;54.10
19970;DHT22;10146;47.754;9.566;2023-05-29T11:58:38;25.90;50.70
19970;DHT22;10146;47.754;9.566;2023-05-29T12:01:05;26.10;51.90
19970;DHT22;10146;47.754;9.566;2023-05-29T12:03:37;26.20;51.60
19970;DHT22;10146;47.754;9.566;2023-05-29T12:06:04;26.30;52.80
19970;DHT22;10146;47.754;9.566;2023-05-29T12:08:29;26.40;54.60
19970;DHT22;10146;47.754;9.566;2023-05-29T12:10:55;26.20;52.40
19970;DHT22;10146;47.754;9.566;2023-05-29T12:13:21;26.20;56.20
19970;DHT22;10146;47.754;9.566;2023-05-29T12:15:52;26.50;54.40
19970;DHT22;10146;47.754;9.566;2023-05-29T12:18:18;26.60;52.20
19970;DHT22;10146;47.754;9.566;2023-05-29T12:20:44;26.70;53.40
19970;DHT22;10146;47.754;9.566;2023-05-29T12:23:10;26.90;52.80
19970;DHT22;10146;47.754;9.566;2023-05-29T12:25:37;27.00;53.40
19970;DHT22;10146;47.754;9.566;2023-05-29T12:28:03;27.20;54.30
19970;DHT22;10146;47.754;9.566;2023-05-29T12:30:29;27.00;52.70
19970;DHT22;10146;47.754;9.566;2023-05-29T12:32:54;26.80;51.70
19970;DHT22;10146;47.754;9.566;2023-05-29T12:35:24;26.90;50.90
19970;DHT22;10146;47.754;9.566;2023-05-29T12:40:25;27.00;50.80
19970;DHT22;10146;47.754;9.566;2023-05-29T12:45:27;27.30;50.20
19970;DHT22;10146;47.754;9.566;2023-05-29T12:47:54;27.40;50.10
19970;DHT22;10146;47.754;9.566;2023-05-29T12:50:25;27.40;49.30
19970;DHT22;10146;47.754;9.566;2023-05-29T12:53:01;27.40;49.10
19970;DHT22;10146;47.754;9.566;2023-05-29T12:55:28;27.70;50.20
19970;DHT22;10146;47.754;9.566;2023-05-29T12:57:55;27.60;50.90
19970;DHT22;10146;47.754;9.566;2023-05-29T13:00:21;28.10;50.60
19970;DHT22;10146;47.754;9.566;2023-05-29T13:02:47;28.30;49.10
19970;DHT22;10146;47.754;9.566;2023-05-29T13:05:14;28.40;49.70
19970;DHT22;10146;47.754;9.566;2023-05-29T13:07:42;28.50;47.20
19970;DHT22;10146;47.754;9.566;2023-05-29T13:10:08;28.50;48.00
19970;DHT22;10146;47.754;9.566;2023-05-29T13:12:34;28.40;47.40
19970;DHT22;10146;47.754;9.566;2023-05-29T13:15:00;28.40;47.20
19970;DHT22;10146;47.754;9.566;2023-05-29T13:17:25;28.20;48.10
19970;DHT22;10146;47.754;9.566;2023-05-29T13:19:51;28.00;46.70
19970;DHT22;10146;47.754;9.566;2023-05-29T13:22:17;28.10;46.50
19970;DHT22;10146;47.754;9.566;2023-05-29T13:24:42;28.50;45.70
19970;DHT22;10146;47.754;9.566;2023-05-29T13:27:08;28.80;45.80
19970;DHT22;10146;47.754;9.566;2023-05-29T13:29:34;28.80;45.90
19970;DHT22;10146;47.754;9.566;2023-05-29T13:32:00;28.70;45.90
19970;DHT22;10146;47.754;9.566;2023-05-29T13:34:26;28.60;46.10
19970;DHT22;10146;47.754;9.566;2023-05-29T13:36:57;28.70;46.60
19970;DHT22;10146;47.754;9.566;2023-05-29T13:39:22;28.80;45.50
19970;DHT22;10146;47.754;9.566;2023-05-29T13:41:48;28.90;45.40
19970;DHT22;10146;47.754;9.566;2023-05-29T13:44:14;29.00;44.60
19970;DHT22;10146;47.754;9.566;2023-05-29T13:46:41;29.10;44.90
19970;DHT22;10146;47.754;9.566;2023-05-29T13:49:06;29.00;44.50
19970;DHT22;10146;47.754;9.566;2023-05-29T13:51:33;29.10;44.20
19970;DHT22;10146;47.754;9.566;2023-05-29T13:53:59;29.40;43.80
19970;DHT22;10146;47.754;9.566;2023-05-29T13:56:24;29.50;43.30
19970;DHT22;10146;47.754;9.566;2023-05-29T13:58:52;29.60;41.50
19970;DHT22;10146;47.754;9.566;2023-05-29T14:01:18;29.70;41.90
19970;DHT22;10146;47.754;9.566;2023-05-29T14:03:45;29.70;42.60
19970;DHT22;10146;47.754;9.566;2023-05-29T14:06:10;30.00;41.90
19970;DHT22;10146;47.754;9.566;2023-05-29T14:08:36;30.10;41.80
19970;DHT22;10146;47.754;9.566;2023-05-29T14:11:01;30.50;41.90
19970;DHT22;10146;47.754;9.566;2023-05-29T14:13:28;30.60;42.30
19970;DHT22;10146;47.754;9.566;2023-05-29T14:15:54;30.60;42.50
19970;DHT22;10146;47.754;9.566;2023-05-29T14:18:21;30.40;43.90
19970;DHT22;10146;47.754;9.566;2023-05-29T14:20:47;30.70;45.20
19970;DHT22;10146;47.754;9.566;2023-05-29T14:23:14;30.90;41.40
19970;DHT22;10146;47.754;9.566;2023-05-29T14:25:41;31.00;40.90
19970;DHT22;10146;47.754;9.566;2023-05-29T14:28:07;31.10;40.10
19970;DHT22;10146;47.754;9.566;2023-05-29T14:30:33;31.40;41.20
19970;DHT22;10146;47.754;9.566;2023-05-29T14:32:58;31.60;40.10
19970;DHT22;10146;47.754;9.566;2023-05-29T14:35:25;31.90;40.10
19970;DHT22;10146;47.754;9.566;2023-05-29T14:37:50;32.10;40.80
19970;DHT22;10146;47.754;9.566;2023-05-29T14:40:16;31.80;41.90
19970;DHT22;10146;47.754;9.566;2023-05-29T14:42:41;31.50;41.80
19970;DHT22;10146;47.754;9.566;2023-05-29T14:45:07;31.70;43.10
19970;DHT22;10146;47.754;9.566;2023-05-29T14:47:33;31.90;42.10
19970;DHT22;10146;47.754;9.566;2023-05-29T14:49:58;32.20;41.20
19970;DHT22;10146;47.754;9.566;2023-05-29T14:52:24;31.60;40.70
19970;DHT22;10146;47.754;9.566;2023-05-29T14:54:50;32.20;38.60
19970;DHT22;10146;47.754;9.566;2023-05-29T14:57:15;32.70;38.40
19970;DHT22;10146;47.754;9.566;2023-05-29T14:59:41;33.20;39.00
19970;DHT22;10146;47.754;9.566;2023-05-29T15:02:06;33.70;38.40
19970;DHT22;10146;47.754;9.566;2023-05-29T15:04:32;34.30;37.70
19970;DHT22;10146;47.754;9.566;2023-05-29T15:06:58;35.00;36.90
19970;DHT22;10146;47.754;9.566;2023-05-29T15:09:24;35.30;35.80
19970;DHT22;10146;47.754;9.566;2023-05-29T15:11:49;35.30;36.10
19970;DHT22;10146;47.754;9.566;2023-05-29T15:14:16;34.90;36.30
19970;DHT22;10146;47.754;9.566;2023-05-29T15:16:42;35.10;35.80
19970;DHT22;10146;47.754;9.566;2023-05-29T15:19:08;35.30;35.80
19970;DHT22;10146;47.754;9.566;2023-05-29T15:21:33;35.70;35.10
19970;DHT22;10146;47.754;9.566;2023-05-29T15:23:59;35.40;35.20
19970;DHT22;10146;47.754;9.566;2023-05-29T15:26:24;36.30;34.70
19970;DHT22;10146;47.754;9.566;2023-05-29T15:28:52;36.40;33.40
19970;DHT22;10146;47.754;9.566;2023-05-29T15:31:17;36.60;34.00
19970;DHT22;10146;47.754;9.566;2023-05-29T15:33:43;36.80;33.60
19970;DHT22;10146;47.754;9.566;2023-05-29T15:36:09;37.00;33.60
19970;DHT22;10146;47.754;9.566;2023-05-29T15:38:35;37.00;34.20
19970;DHT22;10146;47.754;9.566;2023-05-29T15:41:00;35.90;34.60
19970;DHT22;10146;47.754;9.566;2023-05-29T15:43:26;35.30;35.70
19970;DHT22;10146;47.754;9.566;2023-05-29T15:45:52;34.70;35.50
19970;DHT22;10146;47.754;9.566;2023-05-29T15:48:17;34.80;37.10
19970;DHT22;10146;47.754;9.566;2023-05-29T15:50:43;35.10;35.90